Time;durP1;ratioP1;P1;durP2;ratioP2;P2;SDS_P1;SDS_P2;PMS_P1;PMS_P2;Temp;Humidity;BMP_temperature;BMP_pressure;BME280_temperature;BME280_humidity;BME280_pressure;Samples;Min_cycle;Max_cycle;Signal;HPM_P1;HPM_P2
2022/04/06 00:02:25;;;;;;;19.20;12.50;;;;;;;6.08;60.62;100352.05;107270;1249;60952;-65
2022/04/06 00:04:54;;;;;;;18.80;12.80;;;;;;;6.08;59.36;100352.63;107483;1247;59700;-65
2022/04/06 00:07:23;;;;;;;21.80;13.30;;;;;;;6.02;60.59;100357.46;107360;1247;72706;-67
2022/04/06 00:09:52;;;;;;;20.40;13.80;;;;;;;5.98;59.84;100356.11;107361;1247;71612;-65
2022/04/06 00:12:22;;;;;;;22.10;13.70;;;;;;;5.96;60.81;100361.94;107339;1248;67925;-65
2022/04/06 00:14:51;;;;;;;18.20;12.60;;;;;;;5.91;59.59;100365.33;107500;1247;73134;-65
2022/04/06 00:17:20;;;;;;;21.30;12.10;;;;;;;5.76;60.90;100361.36;107544;1247;59518;-66
2022/04/06 00:19:49;;;;;;;20.60;13.00;;;;;;;5.64;62.15;100359.65;107490;1248;61505;-65
2022/04/06 00:22:18;;;;;;;19.20;11.70;;;;;;;5.61;62.65;100356.72;107913;1247;72573;-67
2022/04/06 00:24:47;;;;;;;21.90;13.00;;;;;;;5.55;63.37;100361.00;107725;1248;71231;-67
2022/04/06 00:27:16;;;;;;;20.00;12.80;;;;;;;5.54;62.04;100365.34;107484;1247;70290;-64
2022/04/06 00:29:46;;;;;;;20.80;12.00;;;;;;;5.51;61.55;100355.88;107496;1247;73937;-65
2022/04/06 00:32:15;;;;;;;19.30;12.60;;;;;;;5.49;61.22;100359.10;107487;1248;61190;-66
2022/04/06 00:37:31;;;;;;;17.10;11.60;;;;;;;5.41;60.60;100361.44;107545;1247;75506;-65
2022/04/06 00:40:00;;;;;;;17.10;12.50;;;;;;;5.39;59.97;100357.08;107487;1248;72674;-65
2022/04/06 00:42:29;;;;;;;19.80;11.70;;;;;;;5.39;60.74;100362.25;107494;1247;71381;-64
2022/04/06 00:44:58;;;;;;;20.20;12.80;;;;;;;5.37;59.78;100365.84;107397;1248;74015;-68
2022/04/06 00:47:27;;;;;;;19.90;11.90;;;;;;;5.31;60.99;100363.20;107479;1247;60420;-69
2022/04/06 00:49:56;;;;;;;21.90;12.40;;;;;;;5.28;61.88;100372.02;107456;1246;61614;-68
2022/04/06 00:52:25;;;;;;;19.10;12.20;;;;;;;5.25;62.00;100370.48;107736;1248;75659;-67
2022/04/06 00:54:54;;;;;;;22.10;12.70;;;;;;;5.22;61.53;100371.98;107785;1247;72030;-66
2022/04/06 00:57:25;;;;;;;19.90;12.00;;;;;;;5.21;63.00;100377.08;107632;1246;68281;-69
2022/04/06 00:59:58;;;;;;;17.70;10.90;;;;;;;5.20;63.16;100372.99;107463;1247;73373;-66
2022/04/06 01:02:27;;;;;;;19.20;11.60;;;;;;;5.18;63.70;100378.77;107403;1248;60112;-69
2022/04/06 01:04:57;;;;;;;21.30;13.60;;;;;;;5.17;63.54;100385.95;107411;1247;61188;-66
2022/04/06 01:07:26;;;;;;;21.50;13.60;;;;;;;5.20;63.80;100386.15;107371;1248;74286;-66
2022/04/06 01:09:55;;;;;;;18.30;12.60;;;;;;;5.22;63.74;100390.85;107313;1247;71756;-66
2022/04/06 01:12:26;;;;;;;20.30;13.60;;;;;;;5.21;63.23;100383.48;107375;1248;69129;-68
2022/04/06 01:14:55;;;;;;;22.60;14.00;;;;;;;5.19;62.42;100394.27;107474;1248;74926;-67
2022/04/06 01:17:32;;;;;;;21.10;14.10;;;;;;;5.13;63.37;100387.02;107603;1248;59296;-72
2022/04/06 01:20:05;;;;;;;21.80;13.30;;;;;;;5.10;63.73;100394.45;107459;1249;60629;-69
2022/04/06 01:22:35;;;;;;;;;;;;;;;5.08;64.19;100386.79;107532;1248;71725;-67
2022/04/06 01:25:06;;;;;;;19.40;13.40;;;;;;;5.05;64.47;100389.70;107489;1247;70655;-68
2022/04/06 01:27:36;;;;;;;24.60;14.10;;;;;;;5.04;64.28;100391.63;107493;1248;67989;-67
2022/04/06 01:30:06;;;;;;;19.50;13.10;;;;;;;5.03;63.27;100385.45;107447;1248;73959;-67
2022/04/06 01:32:35;;;;;;;19.50;13.40;;;;;;;5.02;63.56;100385.36;107768;1247;61845;-65
2022/04/06 01:35:06;;;;;;;20.00;12.90;;;;;;;4.99;64.71;100387.23;107871;1249;60722;-67
2022/04/06 01:37:36;;;;;;;20.40;12.20;;;;;;;4.95;65.36;100392.30;107902;1248;74434;-68
2022/04/06 01:40:07;;;;;;;21.40;13.50;;;;;;;4.92;63.44;100390.73;107672;1249;71110;-66
2022/04/06 01:42:35;;;;;;;19.50;13.00;;;;;;;4.82;65.35;100388.84;107488;1247;70623;-67
2022/04/06 01:45:06;;;;;;;21.40;13.50;;;;;;;4.76;65.85;100391.11;107383;1247;74742;-68
2022/04/06 01:47:35;;;;;;;19.60;13.30;;;;;;;4.71;64.96;100394.13;107434;1247;61404;-66
2022/04/06 01:52:53;;;;;;;19.40;11.50;;;;;;;4.61;64.88;100401.04;107642;1248;72186;-66
2022/04/06 01:55:22;;;;;;;16.20;10.60;;;;;;;4.55;64.51;100400.83;107797;1248;70558;-66
2022/04/06 01:57:51;;;;;;;17.00;11.20;;;;;;;4.47;65.93;100403.29;107560;1248;69608;-66
2022/04/06 02:00:21;;;;;;;17.40;12.30;;;;;;;4.44;65.87;100408.64;107986;1248;71994;-66
2022/04/06 02:02:53;;;;;;;18.20;11.70;;;;;;;4.42;66.25;100408.23;107416;1249;59883;-70
2022/04/06 02:05:22;;;;;;;16.60;12.30;;;;;;;4.39;67.08;100405.45;107429;1248;61120;-69
2022/04/06 02:07:51;;;;;;;16.60;12.00;;;;;;;4.38;66.98;100407.20;107523;1248;72992;-65
2022/04/06 02:10:20;;;;;;;17.70;12.20;;;;;;;4.36;67.58;100407.17;107642;1248;69009;-68
2022/04/06 02:12:51;;;;;;;18.20;12.20;;;;;;;4.30;67.41;100406.25;107848;1247;69063;-65
2022/04/06 02:15:21;;;;;;;19.40;12.20;;;;;;;4.26;67.60;100407.50;107780;1247;73375;-66
2022/04/06 02:17:51;;;;;;;19.00;11.50;;;;;;;4.23;67.72;100412.98;107754;1248;62541;-66
2022/04/06 02:20:20;;;;;;;20.70;12.60;;;;;;;4.20;68.15;100410.89;107557;1247;61021;-65
2022/04/06 02:22:50;;;;;;;22.00;12.60;;;;;;;4.15;68.34;100414.77;107268;1247;75277;-67
2022/04/06 02:25:18;;;;;;;16.70;11.60;;;;;;;4.11;68.42;100419.82;107299;1249;73113;-68
2022/04/06 02:27:51;;;;;;;20.10;12.60;;;;;;;4.06;68.28;100421.77;107353;1247;71755;-67
2022/04/06 02:30:21;;;;;;;19.00;13.30;;;;;;;4.02;68.21;100426.95;107564;1247;73942;-67
2022/04/06 02:32:50;;;;;;;21.70;12.50;;;;;;;3.96;68.00;100434.48;107574;1247;60942;-69
2022/04/06 02:35:19;;;;;;;19.30;12.40;;;;;;;3.90;68.69;100434.11;107545;1248;59584;-67
2022/04/06 02:37:48;;;;;;;17.80;13.20;;;;;;;3.87;69.00;100432.02;107476;1248;72241;-65
2022/04/06 02:40:17;;;;;;;19.10;13.00;;;;;;;3.85;69.02;100432.98;107277;1249;70448;-64
2022/04/06 02:42:46;;;;;;;20.80;13.30;;;;;;;3.81;68.92;100434.55;107206;1248;69647;-67
2022/04/06 02:45:15;;;;;;;21.50;12.40;;;;;;;3.77;69.47;100434.92;107277;1248;71651;-68
2022/04/06 02:47:47;;;;;;;20.70;13.20;;;;;;;3.73;69.72;100439.91;107260;1248;58953;-66
2022/04/06 02:50:16;;;;;;;18.30;12.10;;;;;;;3.68;68.60;100434.83;107167;1249;60271;-66
2022/04/06 02:52:45;;;;;;;20.80;11.40;;;;;;;3.61;67.36;100437.07;107210;1248;72778;-66
2022/04/06 02:55:14;;;;;;;20.60;12.30;;;;;;;3.56;68.74;100436.95;107252;1248;70946;-66
2022/04/06 02:57:43;;;;;;;21.70;12.80;;;;;;;3.54;69.71;100438.44;107212;1248;68779;-65
2022/04/06 03:00:16;;;;;;;18.70;11.90;;;;;;;3.52;69.73;100438.00;106651;1248;752094;-66
2022/04/06 03:02:46;;;;;;;17.00;11.70;;;;;;;3.48;68.10;100439.90;107348;1248;60287;-65
2022/04/06 03:05:15;;;;;;;19.20;12.30;;;;;;;3.45;69.73;100441.79;107236;1249;60132;-68
2022/04/06 03:07:44;;;;;;;19.40;11.40;;;;;;;3.44;69.48;100441.66;107070;1249;73457;-66
2022/04/06 03:10:13;;;;;;;17.80;11.70;;;;;;;3.44;69.32;100441.09;107278;1247;70730;-66
2022/04/06 03:12:42;;;;;;;18.80;11.40;;;;;;;3.47;69.42;100437.24;107316;1249;67933;-66
2022/04/06 03:15:12;;;;;;;16.90;11.40;;;;;;;3.46;68.80;100437.61;107617;1249;72699;-66
2022/04/06 03:17:42;;;;;;;16.10;11.90;;;;;;;3.46;68.11;100441.40;107281;1247;59781;-69
2022/04/06 03:20:15;;;;;;;29.40;15.70;;;;;;;3.46;68.91;100439.51;107306;1247;61201;-67
2022/04/06 03:22:44;;;;;;;21.80;12.50;;;;;;;3.39;69.82;100442.23;107285;1248;75255;-66
2022/04/06 03:25:12;;;;;;;23.80;15.50;;;;;;;3.35;70.06;100443.30;107162;1249;72836;-68
2022/04/06 03:27:42;;;;;;;18.10;13.40;;;;;;;3.34;69.69;100436.27;107276;1249;70332;-68
2022/04/06 03:30:11;;;;;;;22.20;13.80;;;;;;;3.32;67.58;100444.27;107417;1249;74919;-67
2022/04/06 03:32:42;;;;;;;23.00;14.10;;;;;;;3.25;70.61;100438.92;107412;1249;60827;-67
2022/04/06 03:35:10;;;;;;;23.60;13.80;;;;;;;3.23;70.86;100442.98;107487;1247;61255;-69
2022/04/06 03:37:40;;;;;;;18.00;12.70;;;;;;;3.22;70.08;100446.48;107479;1248;74688;-70
2022/04/06 03:40:10;;;;;;;21.50;13.80;;;;;;;3.19;68.56;100444.02;107457;1247;71794;-66
2022/04/06 03:42:39;;;;;;;24.20;15.40;;;;;;;3.18;70.75;100444.05;107342;1247;68692;-67
2022/04/06 03:45:10;;;;;;;21.50;13.10;;;;;;;3.16;70.31;100451.19;107413;1248;73165;-68
2022/04/06 03:47:46;;;;;;;21.00;14.00;;;;;;;3.12;68.27;100458.27;107432;1248;61670;-66
2022/04/06 03:50:16;;;;;;;22.60;12.80;;;;;;;3.08;69.25;100461.39;107431;1248;60222;-67
2022/04/06 03:52:45;;;;;;;22.20;14.00;;;;;;;3.10;70.58;100457.51;107354;1249;73484;-68
2022/04/06 03:55:14;;;;;;;20.10;12.80;;;;;;;3.12;71.60;100458.45;107353;1249;69885;-65
2022/04/06 03:57:44;;;;;;;25.50;14.70;;;;;;;3.14;72.01;100459.74;107322;1249;70525;-67
2022/04/06 04:00:14;;;;;;;22.90;14.30;;;;;;;3.15;71.92;100463.61;107335;1248;74056;-66
2022/04/06 04:02:46;;;;;;;27.40;14.40;;;;;;;3.17;70.94;100463.75;107310;1249;61587;-70
2022/04/06 04:05:15;;;;;;;22.80;13.80;;;;;;;3.17;72.36;100467.02;107380;1248;59555;-66
2022/04/06 04:07:44;;;;;;;20.50;12.80;;;;;;;3.22;72.07;100460.75;107365;1249;74272;-66
2022/04/06 04:10:14;;;;;;;22.90;13.30;;;;;;;3.27;71.82;100462.42;107338;1248;72281;-66
2022/04/06 04:12:43;;;;;;;25.50;14.60;;;;;;;3.35;71.79;100459.81;107377;1247;68366;-65
2022/04/06 04:15:13;;;;;;;29.00;14.60;;;;;;;3.43;71.60;100459.43;107353;1248;73577;-66
2022/04/06 04:17:42;;;;;;;24.20;14.50;;;;;;;3.50;72.02;100459.12;107511;1248;59154;-66
2022/04/06 04:20:18;;;;;;;31.20;16.10;;;;;;;3.56;71.86;100458.13;107471;1241;59740;31
2022/04/06 04:22:47;;;;;;;29.00;14.50;;;;;;;3.66;71.51;100458.16;107262;1249;73683;-66
2022/04/06 04:25:17;;;;;;;28.90;14.90;;;;;;;3.73;71.11;100453.71;107479;1247;72763;-66
2022/04/06 04:27:46;;;;;;;26.30;14.40;;;;;;;3.81;70.75;100452.30;107629;1247;69199;-70
2022/04/06 04:30:16;;;;;;;31.30;19.60;;;;;;;3.88;70.42;100453.85;107611;1246;74334;-70
2022/04/06 04:32:46;;;;;;;28.30;19.20;;;;;;;3.95;70.50;100462.48;107416;1247;60244;-67
2022/04/06 04:35:15;;;;;;;38.00;18.90;;;;;;;3.99;69.17;100465.86;107415;1247;59782;-67
2022/04/06 04:37:44;;;;;;;33.60;18.20;;;;;;;4.06;68.55;100473.29;107329;1247;73505;-68
2022/04/06 04:40:16;;;;;;;33.30;18.00;;;;;;;4.16;68.47;100473.67;107403;1247;72623;-66
2022/04/06 04:42:45;;;;;;;32.80;17.00;;;;;;;4.23;69.13;100475.89;107444;1247;67562;-67
2022/04/06 04:45:14;;;;;;;35.70;17.60;;;;;;;4.32;68.63;100474.97;107452;1247;71965;-67
2022/04/06 04:47:44;;;;;;;34.50;18.20;;;;;;;4.41;68.53;100476.21;107306;1250;59621;-70
2022/04/06 04:50:14;;;;;;;44.10;19.90;;;;;;;4.54;69.94;100473.82;107590;1247;59763;-68
2022/04/06 04:52:44;;;;;;;37.40;19.30;;;;;;;4.70;69.37;100471.79;107482;1248;74248;-68
2022/04/06 04:55:14;;;;;;;39.60;18.80;;;;;;;4.83;68.48;100470.44;107461;1247;70767;-67
2022/04/06 04:57:43;;;;;;;39.80;19.50;;;;;;;4.94;68.27;100468.83;107651;1246;68920;-70
2022/04/06 05:00:14;;;;;;;34.70;18.90;;;;;;;5.05;67.61;100468.38;107529;1247;72689;-71
2022/04/06 05:02:43;;;;;;;40.30;19.60;;;;;;;5.18;67.24;100469.60;107523;1247;60906;-70
2022/04/06 05:05:12;;;;;;;40.00;19.30;;;;;;;5.33;66.96;100469.98;107464;1247;59937;-71
2022/04/06 05:07:41;;;;;;;41.40;20.10;;;;;;;5.49;65.85;100470.34;107535;1247;72791;-68
2022/04/06 05:10:11;;;;;;;40.90;20.70;;;;;;;5.65;65.89;100474.61;107485;1247;72448;-68
2022/04/06 05:12:40;;;;;;;33.10;18.30;;;;;;;5.84;65.43;100474.08;107535;1247;67986;-69
2022/04/06 05:15:10;;;;;;;25.70;14.70;;;;;;;6.01;64.68;100476.95;107310;1247;72980;-68
2022/04/06 05:17:40;;;;;;;23.00;13.20;;;;;;;6.23;62.84;100476.38;107198;1247;59924;-68
2022/04/06 05:20:10;;;;;;;22.20;13.00;;;;;;;6.44;62.66;100468.92;107185;1249;61182;-69
2022/04/06 05:22:40;;;;;;;23.00;13.00;;;;;;;6.65;62.37;100471.66;107340;1250;73869;-68
2022/04/06 05:25:11;;;;;;;24.50;12.00;;;;;;;6.85;62.51;100480.65;107344;1250;69375;-71
2022/04/06 05:27:48;;;;;;;23.40;13.30;;;;;;;7.01;60.76;100486.79;107318;1249;68916;-69
2022/04/06 05:30:21;;;;;;;17.90;12.40;;;;;;;7.17;61.10;100487.71;107246;1249;71566;-70
2022/04/06 05:32:52;;;;;;;20.80;12.40;;;;;;;7.32;60.72;100476.20;107259;1250;60334;-69
2022/04/06 05:35:24;;;;;;;28.90;13.00;;;;;;;7.49;60.24;100477.21;107165;1249;59507;-69
2022/04/06 05:37:57;;;;;;;26.60;12.40;;;;;;;7.67;59.77;100475.92;107181;1249;73214;-67
2022/04/06 05:40:26;;;;;;;20.80;11.50;;;;;;;7.84;58.27;100478.98;107315;1249;72629;-70
2022/04/06 05:42:56;;;;;;;20.00;11.80;;;;;;;8.02;56.67;100483.55;107378;1250;70808;-68
2022/04/06 05:45:26;;;;;;;19.80;12.70;;;;;;;8.17;58.08;100488.23;107473;1249;71481;-71
2022/04/06 05:47:55;;;;;;;22.10;12.10;;;;;;;8.34;58.73;100494.61;107411;1250;59626;-72
2022/04/06 05:50:24;;;;;;;19.50;12.60;;;;;;;8.51;57.48;100495.44;107494;1250;61400;-70
2022/04/06 05:52:54;;;;;;;17.10;10.90;;;;;;;8.69;56.80;100500.47;107514;1248;76165;-71
2022/04/06 05:55:23;;;;;;;21.80;11.70;;;;;;;8.88;54.88;100499.36;107487;1249;72547;-70
2022/04/06 05:57:52;;;;;;;18.40;11.40;;;;;;;9.15;50.67;100501.08;107368;1249;71225;-70
2022/04/06 06:00:21;;;;;;;19.90;11.10;;;;;;;9.28;52.77;100497.08;107311;1250;72006;-73
2022/04/06 06:02:51;;;;;;;28.10;11.80;;;;;;;9.42;54.36;100497.09;107255;1250;59166;-72
2022/04/06 06:05:20;;;;;;;18.70;11.40;;;;;;;9.59;53.26;100498.38;107355;1250;59567;-71
2022/04/06 06:07:50;;;;;;;19.40;11.90;;;;;;;9.74;54.14;100500.95;107371;1250;73776;-69
2022/04/06 06:10:21;;;;;;;18.70;11.40;;;;;;;9.90;53.24;100506.00;107256;1250;71157;-71
2022/04/06 06:12:50;;;;;;;18.60;11.10;;;;;;;10.08;50.46;100501.70;107306;1250;70574;-70
2022/04/06 06:15:19;;;;;;;24.80;13.00;;;;;;;10.25;50.64;100503.95;107205;1250;73549;-70
2022/04/06 06:17:48;;;;;;;17.30;12.10;;;;;;;10.45;48.10;100509.48;107169;1250;59595;-71
2022/04/06 06:20:18;;;;;;;20.90;12.20;;;;;;;10.57;49.13;100503.33;107177;1250;62072;-69
2022/04/06 06:22:50;;;;;;;19.10;12.80;;;;;;;10.72;46.54;100503.27;107137;1250;73129;-66
2022/04/06 06:25:19;;;;;;;19.50;11.40;;;;;;;10.84;46.15;100499.21;107203;1249;69561;-71
2022/04/06 06:27:48;;;;;;;20.70;12.30;;;;;;;10.96;49.09;100498.80;107178;1250;68639;-69
2022/04/06 06:30:19;;;;;;;17.20;10.60;;;;;;;11.07;47.33;100496.69;107152;1250;73153;-70
2022/04/06 06:32:48;;;;;;;21.00;11.50;;;;;;;11.24;45.95;100497.15;107248;1250;60330;-71
2022/04/06 06:35:19;;;;;;;21.70;11.60;;;;;;;11.38;48.41;100495.36;107136;1250;61201;-72
2022/04/06 06:37:52;;;;;;;16.70;9.70;;;;;;;11.51;47.72;100495.14;107203;1249;76812;-71
2022/04/06 06:40:26;;;;;;;16.20;8.30;;;;;;;11.72;46.71;100501.31;107238;1248;69859;-68
2022/04/06 06:42:55;;;;;;;15.10;8.70;;;;;;;11.90;46.49;100500.05;107310;1248;70435;-70
2022/04/06 06:45:24;;;;;;;15.00;8.90;;;;;;;12.06;45.27;100493.02;107201;1249;71829;-68
2022/04/06 06:47:54;;;;;;;14.40;8.90;;;;;;;12.26;45.07;100498.73;107237;1249;62384;-69
2022/04/06 06:50:24;;;;;;;12.30;7.70;;;;;;;12.43;44.73;100500.05;107323;1249;61465;-69
2022/04/06 06:52:54;;;;;;;10.50;6.00;;;;;;;12.65;43.41;100499.05;107218;1250;74247;-73
2022/04/06 06:55:23;;;;;;;12.30;7.20;;;;;;;12.80;43.85;100504.80;107328;1250;70673;-68
2022/04/06 06:57:53;;;;;;;10.30;6.30;;;;;;;12.94;43.38;100502.36;107310;1250;71448;-69
2022/04/06 07:00:22;;;;;;;11.10;6.20;;;;;;;13.11;43.75;100507.98;107303;1250;73920;-77
2022/04/06 07:02:51;;;;;;;7.90;5.00;;;;;;;13.26;43.43;100509.83;107289;1250;59960;-70
2022/04/06 07:05:22;;;;;;;9.30;6.10;;;;;;;13.47;42.49;100511.33;107249;1250;59638;-71
2022/04/06 07:08:01;;;;;;;9.00;5.30;;;;;;;13.67;42.17;100512.33;107311;1249;74065;-68
2022/04/06 07:10:30;;;;;;;9.10;5.70;;;;;;;13.86;41.52;100514.71;107299;1250;72645;-69
2022/04/06 07:13:01;;;;;;;12.20;6.30;;;;;;;13.99;41.16;100518.59;107269;1250;70586;-68
2022/04/06 07:15:31;;;;;;;9.60;5.80;;;;;;;14.11;41.19;100516.64;107405;1250;71944;-74
2022/04/06 07:18:03;;;;;;;11.80;5.60;;;;;;;14.25;40.84;100513.79;107570;1250;62269;-69
2022/04/06 07:20:35;;;;;;;11.60;5.00;;;;;;;14.35;40.33;100512.52;107538;1250;62543;-73
2022/04/06 07:23:07;;;;;;;9.90;5.20;;;;;;;14.47;40.41;100516.02;107622;1250;73193;-69
2022/04/06 07:25:36;;;;;;;7.90;5.20;;;;;;;14.58;39.92;100517.11;107461;1250;69216;-72
2022/04/06 07:28:06;;;;;;;12.10;6.10;;;;;;;14.66;40.76;100517.47;107307;1249;70538;-71
2022/04/06 07:30:36;;;;;;;9.20;5.60;;;;;;;14.80;40.35;100520.88;107325;1250;72540;-68
2022/04/06 07:33:09;;;;;;;7.10;4.20;;;;;;;14.91;38.93;100532.66;107627;1249;59852;-69
2022/04/06 07:35:38;;;;;;;4.20;2.40;;;;;;;14.96;38.05;100529.12;107326;1249;61343;-67
2022/04/06 07:38:08;;;;;;;6.40;3.40;;;;;;;15.00;37.44;100524.96;107303;1249;74706;-67
2022/04/06 07:40:38;;;;;;;5.00;2.40;;;;;;;15.09;37.40;100524.64;107175;1250;68801;-67
2022/04/06 07:43:09;;;;;;;6.20;2.90;;;;;;;15.16;37.45;100521.03;107275;1249;70656;-69
2022/04/06 07:45:40;;;;;;;4.50;2.30;;;;;;;15.26;37.29;100528.40;107244;1250;72218;-69
2022/04/06 07:48:10;;;;;;;3.40;2.50;;;;;;;15.32;36.95;100529.95;107282;1250;59625;-69
2022/04/06 07:50:39;;;;;;;3.30;2.80;;;;;;;15.32;36.91;100536.64;107453;1250;59529;-68
2022/04/06 07:53:09;;;;;;;4.30;2.10;;;;;;;15.33;36.57;100533.91;107276;1249;73349;-69
2022/04/06 07:55:38;;;;;;;3.60;1.80;;;;;;;15.35;36.82;100531.40;107166;1250;72917;-70
2022/04/06 07:58:07;;;;;;;3.20;1.80;;;;;;;15.48;36.01;100539.52;107231;1250;69583;-71
2022/04/06 08:00:37;;;;;;;5.10;2.30;;;;;;;15.54;35.94;100535.91;107234;1248;71853;-70
2022/04/06 08:03:07;;;;;;;3.30;1.90;;;;;;;15.54;36.04;100534.86;107532;1249;60627;-71
2022/04/06 08:05:37;;;;;;;4.30;2.10;;;;;;;15.60;36.07;100530.95;107538;1250;61903;-72
2022/04/06 08:08:07;;;;;;;4.30;2.30;;;;;;;15.73;35.65;100525.85;107486;1250;73999;-71
2022/04/06 08:10:37;;;;;;;4.10;2.10;;;;;;;15.67;36.00;100521.89;107526;1250;72778;-73
2022/04/06 08:13:07;;;;;;;2.30;1.70;;;;;;;15.92;35.70;100520.73;107497;1250;70238;-70
2022/04/06 08:15:36;;;;;;;4.30;2.30;;;;;;;16.00;35.54;100521.30;107188;1250;72830;-70
2022/04/06 08:18:07;;;;;;;3.80;2.10;;;;;;;16.06;35.69;100521.93;107307;1250;60192;-70
2022/04/06 08:20:36;;;;;;;3.20;1.80;;;;;;;16.17;35.53;100524.89;107350;1249;61408;-69
2022/04/06 08:23:05;;;;;;;5.70;2.40;;;;;;;16.26;34.85;100519.86;107400;1249;73234;-70
2022/04/06 08:25:35;;;;;;;4.20;2.20;;;;;;;16.26;35.54;100519.70;107460;1249;70363;-68
2022/04/06 08:28:07;;;;;;;4.80;2.50;;;;;;;16.37;35.22;100521.00;107560;1249;68825;-72
2022/04/06 08:30:42;;;;;;;2.30;1.80;;;;;;;16.40;35.34;100515.62;107574;1250;72290;-71
2022/04/06 08:33:12;;;;;;;8.00;2.40;;;;;;;16.48;34.09;100516.71;107483;1250;61229;-72
2022/04/06 08:35:42;;;;;;;2.70;1.80;;;;;;;16.49;34.61;100515.88;107424;1249;60668;-69
2022/04/06 08:38:15;;;;;;;5.90;2.20;;;;;;;16.49;34.26;100521.36;107293;1250;73569;-73
2022/04/06 08:40:45;;;;;;;;;;;;;;;16.47;34.89;100522.27;107261;1250;70367;-69
2022/04/06 08:43:17;;;;;;;2.90;1.90;;;;;;;16.54;34.50;100520.90;107217;1249;70578;-71
2022/04/06 08:45:47;;;;;;;4.40;2.70;;;;;;;16.61;34.05;100516.60;107114;1249;74703;-72
2022/04/06 08:48:20;;;;;;;4.30;1.80;;;;;;;16.65;33.91;100515.23;107211;1250;61892;-71
2022/04/06 08:50:51;;;;;;;3.80;1.90;;;;;;;16.69;33.92;100521.14;107281;1250;60070;-70
2022/04/06 08:53:21;;;;;;;4.90;2.30;;;;;;;16.70;33.79;100514.70;107325;1250;72923;-70
2022/04/06 08:55:51;;;;;;;2.40;1.50;;;;;;;16.74;34.10;100509.92;107457;1249;72489;-72
2022/04/06 08:58:20;;;;;;;4.60;2.60;;;;;;;16.87;33.94;100515.30;107660;1249;72110;-72
2022/04/06 09:00:49;;;;;;;3.90;2.10;;;;;;;16.88;34.05;100505.98;107614;1249;71743;-70
2022/04/06 09:03:21;;;;;;;6.00;2.70;;;;;;;17.02;33.85;100519.08;107572;1250;59529;-72
2022/04/06 09:06:10;;;;;;;4.10;2.20;;;;;;;17.01;33.48;100523.17;107457;1250;60192;-71
2022/04/06 09:08:45;;;;;;;4.50;2.30;;;;;;;17.04;33.12;100527.47;107435;1250;75507;-70
2022/04/06 09:11:21;;;;;;;3.50;2.40;;;;;;;16.98;33.68;100522.83;107275;1248;69931;-72
2022/04/06 09:14:02;;;;;;;3.50;2.30;;;;;;;17.04;33.92;100520.81;107037;1252;68754;-67
2022/04/06 09:16:32;;;;;;;4.70;2.20;;;;;;;17.17;33.76;100518.92;107013;1250;72248;-71
2022/04/06 09:19:13;;;;;;;3.70;2.20;;;;;;;17.28;33.91;100518.67;107138;1249;61174;-70
2022/04/06 09:21:49;;;;;;;5.50;2.50;;;;;;;17.38;32.84;100528.29;107137;1249;59582;-71
2022/04/06 09:24:21;;;;;;;3.60;2.50;;;;;;;17.34;32.92;100520.29;107195;1249;74463;-72
2022/04/06 09:27:02;;;;;;;3.10;2.00;;;;;;;17.28;33.09;100518.45;107338;1249;72145;-69
2022/04/06 09:29:34;;;;;;;5.00;2.40;;;;;;;17.45;32.82;100521.62;107367;1249;68938;-73
2022/04/06 09:32:10;;;;;;;3.60;2.60;;;;;;;17.46;32.51;100524.61;107380;1250;71212;-69
2022/04/06 09:35:00;;;;;;;4.10;2.80;;;;;;;17.51;32.97;100521.36;107209;1249;59691;-69
2022/04/06 09:37:31;;;;;;;5.60;2.60;;;;;;;17.52;33.22;100521.90;107149;1249;60850;-71
2022/04/06 09:40:08;;;;;;;5.60;2.70;;;;;;;17.56;33.05;100515.52;107186;1249;74079;-70
2022/04/06 09:42:37;;;;;;;3.60;2.60;;;;;;;17.66;33.06;100516.23;107146;1249;69374;-71
2022/04/06 09:47:58;;;;;;;4.10;2.80;;;;;;;17.75;33.10;100502.27;107463;1250;74989;-71
2022/04/06 09:50:29;;;;;;;4.50;3.10;;;;;;;17.72;32.91;100494.42;107341;1249;62400;-70
2022/04/06 09:53:01;;;;;;;4.40;3.00;;;;;;;17.65;32.84;100497.64;107329;1249;62035;-69
2022/04/06 09:55:30;;;;;;;3.90;2.80;;;;;;;17.63;33.03;100495.55;107270;1249;73681;-69
2022/04/06 09:58:04;;;;;;;5.90;2.40;;;;;;;17.78;32.82;100491.96;107334;1250;69368;-70
2022/04/06 10:00:34;;;;;;;4.40;2.60;;;;;;;17.89;32.11;100491.30;107376;1250;68715;-69
2022/04/06 10:03:11;;;;;;;5.70;3.10;;;;;;;17.93;31.60;100498.62;107283;1250;74275;-73
2022/04/06 10:05:42;;;;;;;5.30;2.20;;;;;;;17.91;32.19;100499.14;107385;1249;60927;-69
2022/04/06 10:08:11;;;;;;;5.70;2.70;;;;;;;18.07;31.35;100496.77;107374;1249;59626;-69
2022/04/06 10:10:41;;;;;;;3.30;2.50;;;;;;;18.10;32.03;100497.14;107456;1248;71712;-69
2022/04/06 10:13:10;;;;;;;4.70;2.60;;;;;;;18.31;31.98;100492.55;107397;1250;71796;-71
2022/04/06 10:15:59;;;;;;;5.40;2.20;;;;;;;18.51;30.84;100490.58;107461;1250;68523;-68
2022/04/06 10:18:33;;;;;;;3.90;2.20;;;;;;;18.59;30.96;100493.53;107520;1250;73879;-69
2022/04/06 10:21:12;;;;;;;3.80;2.70;;;;;;;18.58;31.04;100490.35;107417;1250;62982;-70
2022/04/06 10:23:50;;;;;;;6.40;2.90;;;;;;;18.48;31.17;100481.85;107458;1250;59509;-69
2022/04/06 10:26:52;;;;;;;4.90;2.70;;;;;;;18.69;31.51;100476.43;107375;1249;74504;-70
2022/04/06 10:29:21;;;;;;;6.80;2.80;;;;;;;19.17;30.49;100480.91;107541;1249;62395;-70
2022/04/06 10:31:50;;;;;;;3.00;2.20;;;;;;;19.51;29.98;100487.14;107317;1249;70623;-71
2022/04/06 10:34:32;;;;;;;5.10;2.60;;;;;;;19.87;28.89;100481.19;107696;1249;74667;-71
2022/04/06 10:37:15;;;;;;;3.70;2.30;;;;;;;20.07;28.00;100491.45;107327;1249;61866;-71
2022/04/06 10:40:05;;;;;;;6.60;3.00;;;;;;;20.14;28.77;100488.29;107367;1249;59882;-76
2022/04/06 10:42:37;;;;;;;4.60;2.60;;;;;;;20.40;28.81;100483.71;107554;1249;75386;-69
2022/04/06 10:45:24;;;;;;;2.50;2.00;;;;;;;20.76;28.89;100481.73;107385;1250;63216;-70
2022/04/06 10:48:18;;;;;;;4.90;2.70;;;;;;;21.12;28.47;100467.61;107344;1248;60045;-70
2022/04/06 10:50:49;;;;;;;4.50;2.10;;;;;;;21.55;28.07;100461.88;107328;1250;63352;-72
2022/04/06 10:53:20;;;;;;;2.80;2.20;;;;;;;21.51;27.77;100454.52;107338;1250;61766;-78
2022/04/06 10:56:16;;;;;;;7.20;2.30;;;;;;;22.05;26.36;100461.70;107766;1250;59677;-71
2022/04/06 10:58:54;;;;;;;3.70;2.20;;;;;;;22.03;26.28;100458.59;107398;1250;62991;-71
2022/04/06 11:01:34;;;;;;;2.80;2.10;;;;;;;22.08;26.21;100453.43;107552;1250;60994;-73
2022/04/06 11:04:17;;;;;;;2.80;1.50;;;;;;;21.97;26.18;100448.19;107508;1248;70360;-72
2022/04/06 11:06:59;;;;;;;5.00;1.80;;;;;;;22.57;24.93;100444.67;107444;1250;73620;-70
2022/04/06 11:10:08;;;;;;;5.50;2.10;;;;;;;22.49;25.15;100441.23;107337;1249;58516;-70
2022/04/06 11:12:57;;;;;;;3.80;1.80;;;;;;;22.72;24.70;100443.00;107150;1250;59626;-71
2022/04/06 11:15:40;;;;;;;3.60;2.00;;;;;;;22.83;24.88;100438.48;107376;1250;73621;-73
2022/04/06 11:18:47;;;;;;;;;;;;;;;22.50;25.47;100438.34;107360;1250;71599;-72
2022/04/06 11:21:16;;;;;;;4.80;2.10;;;;;;;22.40;25.75;100440.28;107227;1248;70954;-73
2022/04/06 11:23:45;;;;;;;2.80;1.70;;;;;;;22.78;24.32;100443.41;107245;1250;72462;-73
2022/04/06 11:26:15;;;;;;;6.50;2.30;;;;;;;22.27;24.69;100436.19;107202;1250;59613;-74
2022/04/06 11:28:44;;;;;;;3.80;1.80;;;;;;;22.33;25.53;100434.23;107272;1250;59097;-72
2022/04/06 11:31:13;;;;;;;4.40;1.80;;;;;;;23.05;25.42;100431.05;107303;1250;74396;-71
2022/04/06 11:33:43;;;;;;;3.60;1.90;;;;;;;23.53;24.67;100429.70;107481;1249;70309;-73
2022/04/06 11:36:18;;;;;;;2.30;1.60;;;;;;;23.75;24.31;100428.48;107399;1249;60882;-72
2022/04/06 11:38:51;;;;;;;3.10;1.70;;;;;;;24.02;24.46;100427.59;107593;1249;63926;-72
2022/04/06 11:41:20;;;;;;;4.20;1.70;;;;;;;23.94;24.06;100428.78;107232;1250;61302;-73